Terminal Aerodrome Forecast
Issued by NWS

Home | Current Version | Previous Version | Text Only | Print | Product List | Glossary On
Versions: 1 2 3 4 5 6 7 8 9 10 11 12 13 14 15 16 17
986
FTUS41 KBTV 121421 AAA
TAFMSS
TAF AMD
KMSS 121421Z 1214/1312 04012KT 1 1/2SM -SN BR OVC015
      TEMPO 1214/1218 1/2SM SN FG
     FM121900 04008KT 1 1/2SM -SN BR OVC015
     FM122300 34005KT 1 1/2SM -SN BR OVC015
     FM130600 29009KT 1 1/2SM -SN BR OVC020=

USA.gov is the U.S. government's official web portal to all federal, state and local government web resources and services.